createdAt,value
2016-11-02T00:00:15.773Z,992.9
2016-11-02T00:00:36.334Z,992.9
2016-11-02T00:00:56.881Z,992.9
2016-11-02T00:01:17.436Z,992.9
2016-11-02T00:01:37.980Z,993
2016-11-02T00:01:58.531Z,993
2016-11-02T00:02:19.146Z,993
2016-11-02T00:02:39.726Z,993
2016-11-02T00:03:00.294Z,993
2016-11-02T00:03:20.851Z,992.9
2016-11-02T00:03:41.419Z,992.9
2016-11-02T00:04:01.964Z,992.9
2016-11-02T00:04:22.509Z,992.9
2016-11-02T00:04:43.064Z,992.9
2016-11-02T00:05:03.629Z,992.9
2016-11-02T00:05:24.183Z,992.9
2016-11-02T00:05:44.760Z,992.9
2016-11-02T00:06:05.320Z,992.9
2016-11-02T00:06:25.881Z,992.9
2016-11-02T00:06:46.426Z,992.8
2016-11-02T00:07:06.969Z,992.8
2016-11-02T00:07:27.516Z,992.9
2016-11-02T00:07:48.067Z,992.9
2016-11-02T00:08:08.714Z,992.9
2016-11-02T00:08:29.270Z,992.9
2016-11-02T00:08:49.814Z,992.8
2016-11-02T00:09:10.382Z,992.9
2016-11-02T00:09:30.934Z,992.8
2016-11-02T00:09:51.513Z,992.8
2016-11-02T00:10:12.162Z,992.8
2016-11-02T00:10:32.736Z,992.9
2016-11-02T00:10:53.321Z,992.8
2016-11-02T00:11:13.866Z,992.8
2016-11-02T00:11:34.436Z,992.9
2016-11-02T00:11:55.010Z,992.9
2016-11-02T00:12:15.567Z,992.8
2016-11-02T00:12:36.102Z,992.8
2016-11-02T00:12:56.653Z,992.9
2016-11-02T00:13:17.215Z,992.9
2016-11-02T00:13:37.758Z,992.9
2016-11-02T00:13:58.293Z,992.9
2016-11-02T00:14:18.873Z,992.9
2016-11-02T00:14:39.425Z,992.9
2016-11-02T00:14:59.975Z,992.9
2016-11-02T00:15:20.511Z,992.9
2016-11-02T00:15:41.089Z,992.9
2016-11-02T00:16:01.654Z,992.9
2016-11-02T00:16:22.249Z,992.9
2016-11-02T00:16:42.794Z,992.9
2016-11-02T00:17:03.363Z,992.9
2016-11-02T00:17:23.919Z,992.9
2016-11-02T00:17:44.481Z,992.9
2016-11-02T00:18:05.033Z,992.9
2016-11-02T00:18:25.573Z,992.9
2016-11-02T00:18:46.154Z,992.9
2016-11-02T00:19:06.706Z,992.9
2016-11-02T00:19:27.252Z,992.9
2016-11-02T00:19:47.810Z,992.9
2016-11-02T00:20:08.402Z,992.9
2016-11-02T00:20:28.967Z,992.9
2016-11-02T00:20:49.516Z,992.9
2016-11-02T00:21:10.076Z,992.9
2016-11-02T00:21:30.621Z,992.9
2016-11-02T00:21:51.209Z,992.9
2016-11-02T00:22:11.798Z,992.9
2016-11-02T00:22:32.349Z,992.9
2016-11-02T00:22:52.909Z,992.9
2016-11-02T00:23:13.506Z,992.9
2016-11-02T00:23:34.631Z,992.9
2016-11-02T00:23:55.180Z,992.9
2016-11-02T00:24:15.816Z,992.9
2016-11-02T00:24:36.376Z,992.9
2016-11-02T00:24:57.706Z,992.9
2016-11-02T00:25:18.266Z,993
2016-11-02T00:25:38.836Z,992.9
2016-11-02T00:25:59.412Z,993
2016-11-02T00:26:19.947Z,993
2016-11-02T00:26:40.558Z,993
2016-11-02T00:27:01.107Z,993
2016-11-02T00:27:21.661Z,993.1
2016-11-02T00:27:42.215Z,992.9
2016-11-02T00:28:02.815Z,993
2016-11-02T00:28:23.361Z,993
2016-11-02T00:28:43.922Z,993
2016-11-02T00:29:04.472Z,993
2016-11-02T00:29:25.027Z,993
2016-11-02T00:29:45.576Z,993
2016-11-02T00:30:06.126Z,993
2016-11-02T00:30:26.722Z,993
2016-11-02T00:30:47.309Z,993
2016-11-02T00:31:07.891Z,993
2016-11-02T00:31:28.466Z,993
2016-11-02T00:31:49.035Z,993
2016-11-02T00:32:09.623Z,993
2016-11-02T00:32:30.197Z,993
2016-11-02T00:32:50.783Z,993
2016-11-02T00:33:11.368Z,993
2016-11-02T00:33:31.964Z,993
2016-11-02T00:33:52.516Z,993
2016-11-02T00:34:13.111Z,993
2016-11-02T00:34:33.708Z,993
2016-11-02T00:34:54.279Z,993
2016-11-02T00:35:14.833Z,993.1
2016-11-02T00:35:35.428Z,993
2016-11-02T00:35:56.000Z,993
2016-11-02T00:36:16.541Z,993
2016-11-02T00:36:37.169Z,993
2016-11-02T00:36:57.724Z,993.1
2016-11-02T00:37:18.304Z,993
2016-11-02T00:37:38.848Z,993
2016-11-02T00:37:59.414Z,993
2016-11-02T00:38:19.967Z,993
2016-11-02T00:38:40.578Z,993
2016-11-02T00:39:01.182Z,993
2016-11-02T00:39:21.738Z,993
2016-11-02T00:39:42.311Z,993
2016-11-02T00:40:02.876Z,993
2016-11-02T00:40:23.452Z,993
2016-11-02T00:40:43.996Z,993
2016-11-02T00:41:04.557Z,993
2016-11-02T00:41:25.095Z,993
2016-11-02T00:41:45.654Z,993
2016-11-02T00:42:06.230Z,993
2016-11-02T00:42:26.802Z,993
2016-11-02T00:42:47.335Z,993
2016-11-02T00:43:07.895Z,993
2016-11-02T00:43:28.492Z,993
2016-11-02T00:43:49.056Z,993.1
2016-11-02T00:44:09.592Z,993
2016-11-02T00:44:30.138Z,993.1
2016-11-02T00:44:50.766Z,993
2016-11-02T00:45:11.330Z,993
2016-11-02T00:45:31.877Z,993
2016-11-02T00:45:52.422Z,993
2016-11-02T00:46:12.974Z,993.1
2016-11-02T00:46:33.522Z,993.1
2016-11-02T00:46:54.077Z,993.1
2016-11-02T00:47:14.650Z,993.1
2016-11-02T00:47:35.211Z,993.1
2016-11-02T00:47:55.749Z,993
2016-11-02T00:48:16.373Z,993
2016-11-02T00:48:36.936Z,993
2016-11-02T00:48:57.479Z,993
2016-11-02T00:49:18.061Z,993
2016-11-02T00:49:38.646Z,993
2016-11-02T00:49:59.198Z,993
2016-11-02T00:50:19.779Z,993
2016-11-02T00:50:40.332Z,993
2016-11-02T00:51:00.896Z,993
2016-11-02T00:51:21.479Z,993
2016-11-02T00:51:42.035Z,993
2016-11-02T00:52:02.608Z,993
2016-11-02T00:52:23.285Z,993
2016-11-02T00:52:43.831Z,993
2016-11-02T00:53:04.383Z,993
2016-11-02T00:53:24.962Z,993
2016-11-02T00:53:45.514Z,993
2016-11-02T00:54:06.113Z,993
2016-11-02T00:54:26.655Z,993
2016-11-02T00:54:47.207Z,993.1
2016-11-02T00:55:07.789Z,993
2016-11-02T00:55:28.349Z,993
2016-11-02T00:55:48.882Z,993
2016-11-02T00:56:09.423Z,993.1
2016-11-02T00:56:30.000Z,993
2016-11-02T00:56:50.571Z,993
2016-11-02T00:57:11.159Z,993
2016-11-02T00:57:31.710Z,993
2016-11-02T00:57:52.273Z,993
2016-11-02T00:58:12.851Z,993
2016-11-02T00:58:33.431Z,993
2016-11-02T00:58:54.003Z,993
2016-11-02T00:59:14.543Z,993
2016-11-02T00:59:35.126Z,993
2016-11-02T00:59:55.710Z,993
2016-11-02T01:00:16.257Z,993
2016-11-02T01:00:36.801Z,993
2016-11-02T01:00:57.347Z,993
2016-11-02T01:01:17.942Z,993
2016-11-02T01:01:38.488Z,993
2016-11-02T01:01:59.069Z,993
2016-11-02T01:02:19.634Z,993
2016-11-02T01:02:40.183Z,993
2016-11-02T01:03:00.752Z,993
2016-11-02T01:03:21.344Z,993
2016-11-02T01:03:41.913Z,993
2016-11-02T01:04:02.460Z,993
2016-11-02T01:04:22.994Z,993
2016-11-02T01:04:43.588Z,993
2016-11-02T01:05:04.190Z,993
2016-11-02T01:05:24.748Z,993.1
2016-11-02T01:05:45.310Z,993
2016-11-02T01:06:05.851Z,993
2016-11-02T01:06:26.448Z,993
2016-11-02T01:06:47.004Z,992.9
2016-11-02T01:07:07.609Z,992.9
2016-11-02T01:07:28.142Z,993
2016-11-02T01:07:48.730Z,993
2016-11-02T01:08:09.304Z,993
2016-11-02T01:08:29.877Z,993
2016-11-02T01:08:50.501Z,993
2016-11-02T01:09:11.053Z,993
2016-11-02T01:09:31.643Z,993
2016-11-02T01:09:52.222Z,993
2016-11-02T01:10:12.777Z,992.9
2016-11-02T01:10:33.334Z,993
2016-11-02T01:10:53.888Z,993
2016-11-02T01:11:14.431Z,993
2016-11-02T01:11:34.988Z,993
2016-11-02T01:11:55.581Z,993
2016-11-02T01:12:16.123Z,993
2016-11-02T01:12:36.676Z,993
2016-11-02T01:12:57.226Z,993
2016-11-02T01:13:17.804Z,993
2016-11-02T01:13:38.368Z,993
2016-11-02T01:13:58.923Z,992.9
2016-11-02T01:14:19.479Z,993
2016-11-02T01:14:40.007Z,993
2016-11-02T01:15:00.546Z,992.9
2016-11-02T01:15:21.167Z,992.9
2016-11-02T01:15:41.721Z,992.9
2016-11-02T01:16:02.279Z,993
2016-11-02T01:16:22.865Z,992.9
2016-11-02T01:16:43.419Z,993
2016-11-02T01:17:03.976Z,992.9
2016-11-02T01:17:24.556Z,992.9
2016-11-02T01:17:45.103Z,992.9
2016-11-02T01:18:05.686Z,992.9
2016-11-02T01:18:26.234Z,992.9
2016-11-02T01:18:46.819Z,992.9
2016-11-02T01:19:07.363Z,992.9
2016-11-02T01:19:27.926Z,992.9
2016-11-02T01:19:48.491Z,992.9
2016-11-02T01:20:09.031Z,992.9
2016-11-02T01:20:29.583Z,992.9
2016-11-02T01:20:50.154Z,992.9
2016-11-02T01:21:10.707Z,992.9
2016-11-02T01:21:31.277Z,992.9
2016-11-02T01:21:51.843Z,992.9
2016-11-02T01:22:12.431Z,992.9
2016-11-02T01:22:32.992Z,992.9
2016-11-02T01:22:53.546Z,992.9
2016-11-02T01:23:14.116Z,992.9
2016-11-02T01:23:34.670Z,992.9
2016-11-02T01:23:55.227Z,992.8
2016-11-02T01:24:15.791Z,992.9
2016-11-02T01:24:36.333Z,992.9
2016-11-02T01:24:56.868Z,992.8
2016-11-02T01:25:17.464Z,992.8
2016-11-02T01:25:38.004Z,992.8
2016-11-02T01:25:58.588Z,992.8
2016-11-02T01:26:19.171Z,992.8
2016-11-02T01:26:39.763Z,992.8
2016-11-02T01:27:00.321Z,992.8
2016-11-02T01:27:20.941Z,992.8
2016-11-02T01:27:41.480Z,992.8
2016-11-02T01:28:02.057Z,992.8
2016-11-02T01:28:22.602Z,992.8
2016-11-02T01:28:43.143Z,992.8
2016-11-02T01:29:03.706Z,992.8
2016-11-02T01:29:24.249Z,992.8
2016-11-02T01:29:44.868Z,992.8
2016-11-02T01:30:05.431Z,992.8
2016-11-02T01:30:25.989Z,992.8
2016-11-02T01:30:46.545Z,992.8
2016-11-02T01:31:07.085Z,992.7
2016-11-02T01:31:27.645Z,992.7
2016-11-02T01:31:48.200Z,992.7
2016-11-02T01:32:08.736Z,992.8
2016-11-02T01:32:29.287Z,992.8
2016-11-02T01:32:49.877Z,992.7
2016-11-02T01:33:10.412Z,992.7
2016-11-02T01:33:30.966Z,992.7
2016-11-02T01:33:51.509Z,992.7
2016-11-02T01:34:12.087Z,992.7
2016-11-02T01:34:32.640Z,992.7
2016-11-02T01:34:53.267Z,992.7
2016-11-02T01:35:13.838Z,992.7
2016-11-02T01:35:34.394Z,992.7
2016-11-02T01:35:54.945Z,992.7
2016-11-02T01:36:15.522Z,992.7
2016-11-02T01:36:36.072Z,992.7
2016-11-02T01:36:56.669Z,992.7
2016-11-02T01:37:17.215Z,992.7
2016-11-02T01:37:37.799Z,992.7
2016-11-02T01:37:58.392Z,992.7
2016-11-02T01:38:18.946Z,992.7
2016-11-02T01:38:39.505Z,992.7
2016-11-02T01:39:00.833Z,992.6
2016-11-02T01:39:21.380Z,992.6
2016-11-02T01:39:41.957Z,992.7
2016-11-02T01:40:02.507Z,992.6
2016-11-02T01:40:23.047Z,992.6
2016-11-02T01:40:43.625Z,992.6
2016-11-02T01:41:04.217Z,992.6
2016-11-02T01:41:24.760Z,992.6
2016-11-02T01:41:45.305Z,992.6
2016-11-02T01:42:05.918Z,992.6
2016-11-02T01:42:26.460Z,992.6
2016-11-02T01:42:47.033Z,992.6
2016-11-02T01:43:07.588Z,992.6
2016-11-02T01:43:28.147Z,992.6
2016-11-02T01:43:48.701Z,992.6
2016-11-02T01:44:09.246Z,992.6
2016-11-02T01:44:29.825Z,992.6
2016-11-02T01:44:50.380Z,992.6
2016-11-02T01:45:10.957Z,992.6
2016-11-02T01:45:31.522Z,992.6
2016-11-02T01:45:52.065Z,992.6
2016-11-02T01:46:12.623Z,992.6
2016-11-02T01:46:33.164Z,992.6
2016-11-02T01:46:53.711Z,992.5
2016-11-02T01:47:15.282Z,992.6
2016-11-02T01:47:35.834Z,992.5
2016-11-02T01:47:56.458Z,992.6
2016-11-02T01:48:17.092Z,992.6
2016-11-02T01:48:38.188Z,992.5
2016-11-02T01:48:58.737Z,992.6
2016-11-02T01:49:19.318Z,992.6
2016-11-02T01:49:39.889Z,992.6
2016-11-02T01:50:00.480Z,992.6
2016-11-02T01:50:21.049Z,992.6
2016-11-02T01:50:41.577Z,992.6
2016-11-02T01:51:02.116Z,992.7
2016-11-02T01:51:22.655Z,992.6
2016-11-02T01:51:43.287Z,992.5
2016-11-02T01:52:03.838Z,992.6
2016-11-02T01:52:24.404Z,992.5
2016-11-02T01:52:44.954Z,992.5
2016-11-02T01:53:05.523Z,992.6
2016-11-02T01:53:26.069Z,992.5
2016-11-02T01:53:46.656Z,992.5
2016-11-02T01:54:07.214Z,992.5
2016-11-02T01:54:27.791Z,992.6
2016-11-02T01:54:48.338Z,992.6
2016-11-02T01:55:08.924Z,992.6
2016-11-02T01:55:29.505Z,992.6
2016-11-02T01:55:50.105Z,992.6
2016-11-02T01:56:10.650Z,992.6
2016-11-02T01:56:31.204Z,992.6
2016-11-02T01:56:51.752Z,992.6
2016-11-02T01:57:12.369Z,992.6
2016-11-02T01:57:32.926Z,992.6
2016-11-02T01:57:53.487Z,992.6
2016-11-02T01:58:14.043Z,992.6
2016-11-02T01:58:34.652Z,992.6
2016-11-02T01:58:55.207Z,992.6
2016-11-02T01:59:15.745Z,992.6
2016-11-02T01:59:36.298Z,992.6
2016-11-02T01:59:56.827Z,992.6
2016-11-02T02:00:17.379Z,992.6
2016-11-02T02:00:37.947Z,992.6
2016-11-02T02:00:58.513Z,992.5
2016-11-02T02:01:19.056Z,992.5
2016-11-02T02:01:39.627Z,992.5
2016-11-02T02:02:00.197Z,992.5
2016-11-02T02:02:20.743Z,992.5
2016-11-02T02:02:41.297Z,992.5
2016-11-02T02:03:01.875Z,992.5
2016-11-02T02:03:22.422Z,992.5
2016-11-02T02:03:43.012Z,992.5
2016-11-02T02:04:03.578Z,992.5
2016-11-02T02:04:24.149Z,992.5
2016-11-02T02:04:44.709Z,992.5
2016-11-02T02:05:05.283Z,992.5
2016-11-02T02:05:25.827Z,992.5
2016-11-02T02:05:46.381Z,992.5
2016-11-02T02:06:06.964Z,992.5
2016-11-02T02:06:27.540Z,992.6
2016-11-02T02:06:48.099Z,992.5
2016-11-02T02:07:08.659Z,992.6
2016-11-02T02:07:29.205Z,992.5
2016-11-02T02:07:49.749Z,992.5
2016-11-02T02:08:10.312Z,992.5
2016-11-02T02:08:30.852Z,992.5
2016-11-02T02:08:51.413Z,992.5
2016-11-02T02:09:11.962Z,992.5
2016-11-02T02:09:32.511Z,992.5
2016-11-02T02:09:53.100Z,992.5
2016-11-02T02:10:13.689Z,992.5
2016-11-02T02:10:34.231Z,992.5
2016-11-02T02:10:54.843Z,992.5
2016-11-02T02:11:15.438Z,992.4
2016-11-02T02:11:36.011Z,992.5
2016-11-02T02:11:56.576Z,992.5
2016-11-02T02:12:17.145Z,992.5
2016-11-02T02:12:37.698Z,992.5
2016-11-02T02:12:58.281Z,992.5
2016-11-02T02:13:18.886Z,992.5
2016-11-02T02:13:39.489Z,992.5
2016-11-02T02:14:00.041Z,992.5
2016-11-02T02:14:20.630Z,992.5
2016-11-02T02:14:41.185Z,992.5
2016-11-02T02:15:02.625Z,992.4
2016-11-02T02:15:23.211Z,992.4
2016-11-02T02:15:43.822Z,992.5
2016-11-02T02:16:04.370Z,992.4
2016-11-02T02:16:24.932Z,992.4
2016-11-02T02:16:45.490Z,992.4
2016-11-02T02:17:06.044Z,992.4
2016-11-02T02:17:26.689Z,992.4
2016-11-02T02:17:47.246Z,992.4
2016-11-02T02:18:07.775Z,992.5
2016-11-02T02:18:28.328Z,992.5
2016-11-02T02:18:48.876Z,992.5
2016-11-02T02:19:09.433Z,992.5
2016-11-02T02:19:29.992Z,992.4
2016-11-02T02:19:50.543Z,992.5
2016-11-02T02:20:11.085Z,992.5
2016-11-02T02:20:31.656Z,992.5
2016-11-02T02:20:52.226Z,992.5
2016-11-02T02:21:12.801Z,992.4
2016-11-02T02:21:33.356Z,992.4
2016-11-02T02:21:53.936Z,992.5
2016-11-02T02:22:14.529Z,992.5
2016-11-02T02:22:35.077Z,992.5
2016-11-02T02:22:55.616Z,992.5
2016-11-02T02:23:16.180Z,992.5
2016-11-02T02:23:36.756Z,992.5
2016-11-02T02:23:57.324Z,992.5
2016-11-02T02:24:17.883Z,992.5
2016-11-02T02:24:38.438Z,992.5
2016-11-02T02:24:58.989Z,992.5
2016-11-02T02:25:19.557Z,992.5
2016-11-02T02:25:40.123Z,992.5
2016-11-02T02:26:00.671Z,992.5
2016-11-02T02:26:21.247Z,992.6
2016-11-02T02:26:41.848Z,992.5
2016-11-02T02:27:02.384Z,992.5
2016-11-02T02:27:22.925Z,992.5
2016-11-02T02:27:43.472Z,992.5
2016-11-02T02:28:04.091Z,992.5
2016-11-02T02:28:24.640Z,992.5
2016-11-02T02:28:45.181Z,992.5
2016-11-02T02:29:05.748Z,992.5
2016-11-02T02:29:26.346Z,992.5
2016-11-02T02:29:46.910Z,992.5
2016-11-02T02:30:07.516Z,992.5
2016-11-02T02:30:28.060Z,992.5
2016-11-02T02:30:48.671Z,992.5
2016-11-02T02:31:09.258Z,992.5
2016-11-02T02:31:29.798Z,992.5
2016-11-02T02:31:50.365Z,992.5
2016-11-02T02:32:10.916Z,992.5
2016-11-02T02:32:31.468Z,992.5
2016-11-02T02:32:52.028Z,992.6
2016-11-02T02:33:12.609Z,992.6
2016-11-02T02:33:33.152Z,992.5
2016-11-02T02:33:53.698Z,992.5
2016-11-02T02:34:14.265Z,992.5
2016-11-02T02:34:34.830Z,992.5
2016-11-02T02:34:55.398Z,992.5
2016-11-02T02:35:15.950Z,992.5
2016-11-02T02:35:36.511Z,992.5
2016-11-02T02:35:57.053Z,992.5
2016-11-02T02:36:17.634Z,992.4
2016-11-02T02:36:38.231Z,992.5
2016-11-02T02:36:58.794Z,992.5
2016-11-02T02:37:19.356Z,992.5
2016-11-02T02:37:39.919Z,992.5
2016-11-02T02:38:00.477Z,992.5
2016-11-02T02:38:21.045Z,992.5
2016-11-02T02:38:41.606Z,992.5
2016-11-02T02:39:02.155Z,992.5
2016-11-02T02:39:22.694Z,992.5
2016-11-02T02:39:43.235Z,992.5
2016-11-02T02:40:03.824Z,992.5
2016-11-02T02:40:24.414Z,992.4
2016-11-02T02:40:44.955Z,992.4
2016-11-02T02:41:05.496Z,992.4
2016-11-02T02:41:26.052Z,992.4
2016-11-02T02:41:46.610Z,992.4
2016-11-02T02:42:07.156Z,992.4
2016-11-02T02:42:27.765Z,992.4
2016-11-02T02:42:48.315Z,992.4
2016-11-02T02:43:08.862Z,992.4
2016-11-02T02:43:29.441Z,992.4
2016-11-02T02:43:50.009Z,992.4
2016-11-02T02:44:10.553Z,992.4
2016-11-02T02:44:31.101Z,992.4
2016-11-02T02:44:51.680Z,992.5
2016-11-02T02:45:12.263Z,992.5
2016-11-02T02:45:33.690Z,992.4
2016-11-02T02:45:54.261Z,992.4
2016-11-02T02:46:14.822Z,992.3
2016-11-02T02:46:35.400Z,992.4
2016-11-02T02:46:55.939Z,992.4
2016-11-02T02:47:16.530Z,992.4
2016-11-02T02:47:37.074Z,992.3
2016-11-02T02:47:57.630Z,992.3
2016-11-02T02:48:18.203Z,992.3
2016-11-02T02:48:38.764Z,992.3
2016-11-02T02:48:59.686Z,992.3
2016-11-02T02:49:20.303Z,992.2
2016-11-02T02:49:40.855Z,992.2
2016-11-02T02:50:01.401Z,992.2
2016-11-02T02:50:21.962Z,992.3
2016-11-02T02:50:42.524Z,992.3
2016-11-02T02:51:03.084Z,992.3
2016-11-02T02:51:23.640Z,992.3
2016-11-02T02:51:44.193Z,992.3
2016-11-02T02:52:04.762Z,992.3
2016-11-02T02:52:25.306Z,992.3
2016-11-02T02:52:45.841Z,992.3
2016-11-02T02:53:06.415Z,992.3
2016-11-02T02:53:26.950Z,992.3
2016-11-02T02:53:47.553Z,992.3
2016-11-02T02:54:08.176Z,992.3
2016-11-02T02:54:28.737Z,992.3
2016-11-02T02:54:49.281Z,992.2
2016-11-02T02:55:09.835Z,992.3
2016-11-02T02:55:30.441Z,992.2
2016-11-02T02:55:51.000Z,992.3
2016-11-02T02:56:11.584Z,992.3
2016-11-02T02:56:32.143Z,992.2
2016-11-02T02:56:52.689Z,992.2
2016-11-02T02:57:13.254Z,992.3
2016-11-02T02:57:33.782Z,992.3
2016-11-02T02:57:54.342Z,992.3
2016-11-02T02:58:14.934Z,992.3
2016-11-02T02:58:35.505Z,992.3
2016-11-02T02:58:56.061Z,992.3
2016-11-02T02:59:16.658Z,992.3
2016-11-02T02:59:37.214Z,992.3
2016-11-02T02:59:57.799Z,992.3
2016-11-02T03:00:18.340Z,992.3
2016-11-02T03:00:38.880Z,992.4
2016-11-02T03:00:59.441Z,992.4
2016-11-02T03:01:19.991Z,992.4
2016-11-02T03:01:40.570Z,992.4
2016-11-02T03:02:01.166Z,992.4
2016-11-02T03:02:21.709Z,992.4
2016-11-02T03:02:42.295Z,992.4
2016-11-02T03:03:02.850Z,992.4
2016-11-02T03:03:23.415Z,992.4
2016-11-02T03:03:43.967Z,992.4
2016-11-02T03:04:04.529Z,992.4
2016-11-02T03:04:25.101Z,992.4
2016-11-02T03:04:45.675Z,992.4
2016-11-02T03:05:06.217Z,992.4
2016-11-02T03:05:26.782Z,992.4
2016-11-02T03:05:47.338Z,992.4
2016-11-02T03:06:07.894Z,992.4
2016-11-02T03:06:28.441Z,992.4
2016-11-02T03:06:49.076Z,992.4
2016-11-02T03:07:09.629Z,992.3
2016-11-02T03:07:30.193Z,992.3
2016-11-02T03:07:50.745Z,992.3
2016-11-02T03:08:11.304Z,992.3
2016-11-02T03:08:31.865Z,992.3
2016-11-02T03:08:52.425Z,992.3
2016-11-02T03:09:12.982Z,992.3
2016-11-02T03:09:33.540Z,992.3
2016-11-02T03:09:54.105Z,992.4
2016-11-02T03:10:14.699Z,992.3
2016-11-02T03:10:35.263Z,992.4
2016-11-02T03:10:55.869Z,992.3
2016-11-02T03:11:16.412Z,992.3
2016-11-02T03:11:36.983Z,992.3
2016-11-02T03:11:57.558Z,992.4
2016-11-02T03:12:18.118Z,992.3
2016-11-02T03:12:38.674Z,992.3
2016-11-02T03:12:59.218Z,992.3
2016-11-02T03:13:19.766Z,992.3
2016-11-02T03:13:40.339Z,992.3
2016-11-02T03:14:00.886Z,992.3
2016-11-02T03:14:21.451Z,992.3
2016-11-02T03:14:42.011Z,992.3
2016-11-02T03:15:02.564Z,992.3
2016-11-02T03:15:23.177Z,992.3
2016-11-02T03:15:43.724Z,992.3
2016-11-02T03:16:04.369Z,992.3
2016-11-02T03:16:24.904Z,992.3
2016-11-02T03:16:45.528Z,992.2
2016-11-02T03:17:06.096Z,992.2
2016-11-02T03:17:26.645Z,992.2
2016-11-02T03:17:47.187Z,992.2
2016-11-02T03:18:07.740Z,992.2
2016-11-02T03:18:28.301Z,992.2
2016-11-02T03:18:48.876Z,992.2
2016-11-02T03:19:09.447Z,992.2
2016-11-02T03:19:30.004Z,992.2
2016-11-02T03:19:50.569Z,992.2
2016-11-02T03:20:11.124Z,992.2
2016-11-02T03:20:31.684Z,992.2
2016-11-02T03:20:52.241Z,992.2
2016-11-02T03:21:12.785Z,992.2
2016-11-02T03:21:33.336Z,992.2
2016-11-02T03:21:53.887Z,992.3
2016-11-02T03:22:14.446Z,992.2
2016-11-02T03:22:34.997Z,992.2
2016-11-02T03:22:55.584Z,992.2
2016-11-02T03:23:16.122Z,992.2
2016-11-02T03:23:36.836Z,992.2
2016-11-02T03:23:58.195Z,992.2
2016-11-02T03:24:18.783Z,992.2
2016-11-02T03:24:39.327Z,992.2
2016-11-02T03:24:59.882Z,992.2
2016-11-02T03:25:20.431Z,992.1
2016-11-02T03:25:40.978Z,992.1
2016-11-02T03:26:01.598Z,992.2
2016-11-02T03:26:22.141Z,992.1
2016-11-02T03:26:42.711Z,992.1
2016-11-02T03:27:03.249Z,992.1
2016-11-02T03:27:23.806Z,992.1
2016-11-02T03:27:44.386Z,992.1
2016-11-02T03:28:04.946Z,992.1
2016-11-02T03:28:25.493Z,992.1
2016-11-02T03:28:46.033Z,992.1
2016-11-02T03:29:06.614Z,992.1
2016-11-02T03:29:27.190Z,992.1
2016-11-02T03:29:47.799Z,992.1
2016-11-02T03:30:08.362Z,992.1
2016-11-02T03:30:28.919Z,992.1
2016-11-02T03:30:49.468Z,992.1
2016-11-02T03:31:10.008Z,992
2016-11-02T03:31:30.564Z,992
2016-11-02T03:31:51.133Z,992
2016-11-02T03:32:11.696Z,992
2016-11-02T03:32:32.269Z,992
2016-11-02T03:32:52.838Z,992.1
2016-11-02T03:33:13.393Z,992
2016-11-02T03:33:33.950Z,992
2016-11-02T03:33:54.489Z,992
2016-11-02T03:34:15.049Z,992
2016-11-02T03:34:35.630Z,992.1
2016-11-02T03:34:56.193Z,992.1
2016-11-02T03:35:16.757Z,992
2016-11-02T03:35:37.328Z,992.1
2016-11-02T03:35:57.931Z,992.1
2016-11-02T03:36:18.498Z,992.1
2016-11-02T03:36:39.047Z,992.1
2016-11-02T03:36:59.627Z,992.1
2016-11-02T03:37:20.220Z,992.1
2016-11-02T03:37:40.812Z,992.1
2016-11-02T03:38:01.377Z,992.1
2016-11-02T03:38:21.987Z,992.1
2016-11-02T03:38:42.580Z,992
2016-11-02T03:39:03.128Z,992.1
2016-11-02T03:39:23.670Z,992.1
2016-11-02T03:39:44.226Z,992.1
2016-11-02T03:40:04.776Z,992.1
2016-11-02T03:40:25.318Z,992
2016-11-02T03:40:45.876Z,992.1
2016-11-02T03:41:06.429Z,992.1
2016-11-02T03:41:27.386Z,992.1
2016-11-02T03:41:47.962Z,992.1
2016-11-02T03:42:08.510Z,992.1
2016-11-02T03:42:29.050Z,992.1
2016-11-02T03:42:49.602Z,992.1
2016-11-02T03:43:10.160Z,992.1
2016-11-02T03:43:30.738Z,992.1
2016-11-02T03:43:51.321Z,992.1
2016-11-02T03:44:11.867Z,992.1
2016-11-02T03:44:32.453Z,992.1
2016-11-02T03:44:53.027Z,992.1
2016-11-02T03:45:13.641Z,992.1
2016-11-02T03:45:34.191Z,992.1
2016-11-02T03:45:54.771Z,992.1
2016-11-02T03:46:15.406Z,992
2016-11-02T03:46:35.954Z,992
2016-11-02T03:46:56.550Z,992.1
2016-11-02T03:47:17.096Z,992.1
2016-11-02T03:47:37.670Z,992
2016-11-02T03:47:58.223Z,992
2016-11-02T03:48:19.293Z,992
2016-11-02T03:48:39.867Z,992
2016-11-02T03:49:00.487Z,992
2016-11-02T03:49:21.084Z,992
2016-11-02T03:49:41.658Z,992
2016-11-02T03:50:02.204Z,992
2016-11-02T03:50:22.765Z,992
2016-11-02T03:50:43.312Z,992
2016-11-02T03:51:03.868Z,992
2016-11-02T03:51:24.443Z,992
2016-11-02T03:51:44.987Z,992
2016-11-02T03:52:05.624Z,992
2016-11-02T03:52:26.162Z,992
2016-11-02T03:52:46.691Z,992
2016-11-02T03:53:07.262Z,992
2016-11-02T03:53:27.831Z,992
2016-11-02T03:53:48.373Z,992
2016-11-02T03:54:08.938Z,992
2016-11-02T03:54:29.487Z,992
2016-11-02T03:54:50.034Z,992
2016-11-02T03:55:10.586Z,992
2016-11-02T03:55:31.138Z,992
2016-11-02T03:55:51.705Z,992
2016-11-02T03:56:12.253Z,992
2016-11-02T03:56:32.846Z,992
2016-11-02T03:56:53.400Z,992
2016-11-02T03:57:13.961Z,992
2016-11-02T03:57:34.511Z,991.9
2016-11-02T03:57:55.064Z,992
2016-11-02T03:58:15.646Z,991.9
2016-11-02T03:58:36.268Z,991.9
2016-11-02T03:58:56.830Z,991.9
2016-11-02T03:59:17.395Z,991.9
2016-11-02T03:59:37.962Z,991.9
2016-11-02T03:59:58.534Z,991.9
2016-11-02T04:00:19.083Z,992
2016-11-02T04:00:39.629Z,992
2016-11-02T04:01:00.180Z,992
2016-11-02T04:01:20.731Z,992
2016-11-02T04:01:41.303Z,992
2016-11-02T04:02:01.860Z,992
2016-11-02T04:02:22.403Z,992
2016-11-02T04:02:42.951Z,992
2016-11-02T04:03:03.532Z,992
2016-11-02T04:03:24.122Z,992
2016-11-02T04:03:44.665Z,992
2016-11-02T04:04:05.229Z,991.9
2016-11-02T04:04:25.802Z,992
2016-11-02T04:04:46.348Z,992
2016-11-02T04:05:06.910Z,991.9
2016-11-02T04:05:27.496Z,992
2016-11-02T04:05:48.045Z,992
2016-11-02T04:06:08.586Z,992
2016-11-02T04:06:29.190Z,992
2016-11-02T04:06:49.737Z,992
2016-11-02T04:07:10.289Z,991.9
2016-11-02T04:07:30.842Z,991.9
2016-11-02T04:07:51.395Z,991.9
2016-11-02T04:08:11.939Z,992
2016-11-02T04:08:32.524Z,992
2016-11-02T04:08:53.088Z,992
2016-11-02T04:09:13.638Z,992
2016-11-02T04:09:34.183Z,992
2016-11-02T04:09:54.734Z,992
2016-11-02T04:10:15.278Z,992
2016-11-02T04:10:35.842Z,992
2016-11-02T04:10:56.380Z,992
2016-11-02T04:11:16.978Z,992
2016-11-02T04:11:37.530Z,992
2016-11-02T04:11:58.081Z,992
2016-11-02T04:12:18.667Z,992
2016-11-02T04:12:39.268Z,992
2016-11-02T04:12:59.801Z,992.1
2016-11-02T04:13:20.354Z,992.1
2016-11-02T04:13:40.897Z,992
2016-11-02T04:14:01.454Z,992.1
2016-11-02T04:14:22.009Z,992.1
2016-11-02T04:14:42.572Z,992.1
2016-11-02T04:15:03.139Z,992.1
2016-11-02T04:15:23.689Z,992.1
2016-11-02T04:15:44.239Z,992.1
2016-11-02T04:16:04.791Z,992.1
2016-11-02T04:16:25.339Z,992.1
2016-11-02T04:16:45.876Z,992.1
2016-11-02T04:17:06.523Z,992.1
2016-11-02T04:17:27.078Z,992.1
2016-11-02T04:17:47.637Z,992.1
2016-11-02T04:18:08.247Z,992.1
2016-11-02T04:18:28.788Z,992.1
2016-11-02T04:18:49.376Z,992.1
2016-11-02T04:19:09.917Z,992.1
2016-11-02T04:19:30.526Z,992.1
2016-11-02T04:19:51.082Z,992.1
2016-11-02T04:20:11.680Z,992.1
2016-11-02T04:20:32.269Z,992.1
2016-11-02T04:20:52.851Z,992.1
2016-11-02T04:21:13.399Z,992.1
2016-11-02T04:21:33.959Z,992.1
2016-11-02T04:21:54.573Z,992.1
2016-11-02T04:22:15.131Z,992.1
2016-11-02T04:22:35.669Z,992.1
2016-11-02T04:22:56.268Z,992.1
2016-11-02T04:23:16.895Z,992.1
2016-11-02T04:23:37.462Z,992.1
2016-11-02T04:23:58.006Z,992.1
2016-11-02T04:24:18.560Z,992.1
2016-11-02T04:24:39.170Z,992.1
2016-11-02T04:24:59.743Z,992.1
2016-11-02T04:25:20.287Z,992.1
2016-11-02T04:25:40.858Z,992.1
2016-11-02T04:26:01.405Z,992.1
2016-11-02T04:26:21.955Z,992.1
2016-11-02T04:26:42.500Z,992.1
2016-11-02T04:27:03.082Z,992
2016-11-02T04:27:23.671Z,992.1
2016-11-02T04:27:44.271Z,992.1
2016-11-02T04:28:04.864Z,992
2016-11-02T04:28:25.417Z,992
2016-11-02T04:28:45.982Z,992
2016-11-02T04:29:06.579Z,992
2016-11-02T04:29:27.134Z,992
2016-11-02T04:29:47.717Z,992